Terminal Aerodrome Forecast
Issued by NWS

Current Version | Previous Version | Text Only | Print | Product List | Glossary On
Versions: 1 2 3 4 5 6 7 8 9 10 11 12
000
FTUS45 KBOI 201740
TAFTWF
TAF
KTWF 201740Z 2018/2118 21010KT P6SM -RA SCT030 OVC050
      TEMPO 2018/2020 -RA BKN030
     FM210000 19010KT P6SM -SHRA BKN040 OVC050=

USA.gov is the U.S. government's official web portal to all federal, state and local government web resources and services.